sensor_id;sensor_type;location;lat;lon;timestamp;temperature;humidity
63407;SHT31;49543;45.892;10.838;2023-02-18T15:55:52;9.83;88.31
63407;SHT31;49543;45.892;10.838;2023-02-18T17:56:45;9.00;86.22
63407;SHT31;49543;45.892;10.838;2023-02-18T17:59:11;9.03;86.38
63407;SHT31;49543;45.892;10.838;2023-02-18T18:01:37;9.01;86.22
63407;SHT31;49543;45.892;10.838;2023-02-18T18:04:02;9.00;85.87
63407;SHT31;49543;45.892;10.838;2023-02-18T18:06:27;9.01;85.83
63407;SHT31;49543;45.892;10.838;2023-02-18T18:08:53;8.96;86.13
63407;SHT31;49543;45.892;10.838;2023-02-18T18:11:20;8.96;86.26
63407;SHT31;49543;45.892;10.838;2023-02-18T18:13:45;8.94;86.13
63407;SHT31;49543;45.892;10.838;2023-02-18T18:16:11;8.93;85.99
63407;SHT31;49543;45.892;10.838;2023-02-18T18:18:37;8.91;85.91
63407;SHT31;49543;45.892;10.838;2023-02-18T18:21:03;8.90;85.94
63407;SHT31;49543;45.892;10.838;2023-02-18T18:23:28;8.83;86.41
63407;SHT31;49543;45.892;10.838;2023-02-18T18:25:55;8.80;86.62
63407;SHT31;49543;45.892;10.838;2023-02-18T18:28:21;8.83;86.65
63407;SHT31;49543;45.892;10.838;2023-02-18T18:30:48;8.80;86.23
63407;SHT31;49543;45.892;10.838;2023-02-18T18:33:18;8.80;86.42
63407;SHT31;49543;45.892;10.838;2023-02-18T18:35:44;8.84;86.30
63407;SHT31;49543;45.892;10.838;2023-02-18T18:38:10;8.81;86.16
63407;SHT31;49543;45.892;10.838;2023-02-18T18:40:36;8.81;85.96
63407;SHT31;49543;45.892;10.838;2023-02-18T18:43:01;8.81;86.10
63407;SHT31;49543;45.892;10.838;2023-02-18T18:45:34;8.77;86.30
63407;SHT31;49543;45.892;10.838;2023-02-18T18:48:01;8.76;86.47
63407;SHT31;49543;45.892;10.838;2023-02-18T18:50:27;8.74;86.43
63407;SHT31;49543;45.892;10.838;2023-02-18T18:52:52;8.74;86.32
63407;SHT31;49543;45.892;10.838;2023-02-18T18:55:37;8.74;86.33
63407;SHT31;49543;45.892;10.838;2023-02-18T18:58:02;8.70;86.43
63407;SHT31;49543;45.892;10.838;2023-02-18T19:00:29;8.70;86.40
63407;SHT31;49543;45.892;10.838;2023-02-18T19:02:55;8.72;86.40
63407;SHT31;49543;45.892;10.838;2023-02-18T19:05:23;8.66;86.19
63407;SHT31;49543;45.892;10.838;2023-02-18T19:07:48;8.67;86.37
63407;SHT31;49543;45.892;10.838;2023-02-18T19:10:14;8.62;86.35
63407;SHT31;49543;45.892;10.838;2023-02-18T19:12:39;8.66;86.51
63407;SHT31;49543;45.892;10.838;2023-02-18T19:15:05;8.63;86.44
63407;SHT31;49543;45.892;10.838;2023-02-18T19:17:30;8.64;86.47
63407;SHT31;49543;45.892;10.838;2023-02-18T19:19:56;8.63;86.47
63407;SHT31;49543;45.892;10.838;2023-02-18T19:22:21;8.63;86.46
63407;SHT31;49543;45.892;10.838;2023-02-18T19:24:46;8.57;86.40
63407;SHT31;49543;45.892;10.838;2023-02-18T19:27:11;8.57;86.64
63407;SHT31;49543;45.892;10.838;2023-02-18T19:29:38;8.55;86.78
63407;SHT31;49543;45.892;10.838;2023-02-18T19:32:03;8.59;86.92
63407;SHT31;49543;45.892;10.838;2023-02-18T19:34:29;8.59;86.83
63407;SHT31;49543;45.892;10.838;2023-02-18T19:36:55;8.57;86.51
63407;SHT31;49543;45.892;10.838;2023-02-18T19:39:20;8.55;86.57
63407;SHT31;49543;45.892;10.838;2023-02-18T19:41:46;8.53;86.64
63407;SHT31;49543;45.892;10.838;2023-02-18T19:44:11;8.52;86.89
63407;SHT31;49543;45.892;10.838;2023-02-18T19:46:36;8.50;87.19
63407;SHT31;49543;45.892;10.838;2023-02-18T19:49:02;8.49;87.11
63407;SHT31;49543;45.892;10.838;2023-02-18T19:51:27;8.48;86.93
63407;SHT31;49543;45.892;10.838;2023-02-18T19:53:52;8.49;86.80
63407;SHT31;49543;45.892;10.838;2023-02-18T19:56:18;8.49;86.75
63407;SHT31;49543;45.892;10.838;2023-02-18T19:58:44;8.46;86.85
63407;SHT31;49543;45.892;10.838;2023-02-18T20:01:16;8.43;86.90
63407;SHT31;49543;45.892;10.838;2023-02-18T20:03:41;8.43;87.23
63407;SHT31;49543;45.892;10.838;2023-02-18T20:06:17;8.46;87.36
63407;SHT31;49543;45.892;10.838;2023-02-18T20:08:43;8.45;87.36
63407;SHT31;49543;45.892;10.838;2023-02-18T20:11:08;8.39;87.19
63407;SHT31;49543;45.892;10.838;2023-02-18T20:13:33;8.39;87.03
63407;SHT31;49543;45.892;10.838;2023-02-18T20:15:59;8.36;87.19
63407;SHT31;49543;45.892;10.838;2023-02-18T20:18:24;8.35;87.33
63407;SHT31;49543;45.892;10.838;2023-02-18T20:20:50;8.36;87.05
63407;SHT31;49543;45.892;10.838;2023-02-18T20:23:15;8.36;86.96
63407;SHT31;49543;45.892;10.838;2023-02-18T20:25:40;8.34;87.06
63407;SHT31;49543;45.892;10.838;2023-02-18T20:28:06;8.32;86.86
63407;SHT31;49543;45.892;10.838;2023-02-18T20:30:31;8.36;86.74
63407;SHT31;49543;45.892;10.838;2023-02-18T20:32:57;8.31;86.81
63407;SHT31;49543;45.892;10.838;2023-02-18T20:35:22;8.31;86.63
63407;SHT31;49543;45.892;10.838;2023-02-18T20:37:48;8.35;86.45
63407;SHT31;49543;45.892;10.838;2023-02-18T20:40:13;8.39;86.24
63407;SHT31;49543;45.892;10.838;2023-02-18T20:42:38;8.38;86.09
63407;SHT31;49543;45.892;10.838;2023-02-18T20:45:06;8.32;86.22
63407;SHT31;49543;45.892;10.838;2023-02-18T20:47:31;8.28;86.28
63407;SHT31;49543;45.892;10.838;2023-02-18T20:49:57;8.24;86.33
63407;SHT31;49543;45.892;10.838;2023-02-18T20:52:22;8.18;86.47
63407;SHT31;49543;45.892;10.838;2023-02-18T20:54:47;8.18;86.55
63407;SHT31;49543;45.892;10.838;2023-02-18T20:57:13;8.14;86.43
63407;SHT31;49543;45.892;10.838;2023-02-18T20:59:38;8.14;86.52
63407;SHT31;49543;45.892;10.838;2023-02-18T21:02:03;8.11;86.64
63407;SHT31;49543;45.892;10.838;2023-02-18T21:04:29;8.07;86.56
63407;SHT31;49543;45.892;10.838;2023-02-18T21:06:54;8.05;86.75
63407;SHT31;49543;45.892;10.838;2023-02-18T21:09:20;8.07;86.60
63407;SHT31;49543;45.892;10.838;2023-02-18T21:11:45;7.99;87.04
63407;SHT31;49543;45.892;10.838;2023-02-18T21:14:11;7.97;87.29
63407;SHT31;49543;45.892;10.838;2023-02-18T21:16:36;7.94;87.09
63407;SHT31;49543;45.892;10.838;2023-02-18T21:19:10;7.95;87.28
63407;SHT31;49543;45.892;10.838;2023-02-18T21:21:35;7.93;87.19
63407;SHT31;49543;45.892;10.838;2023-02-18T21:24:01;7.93;87.38
63407;SHT31;49543;45.892;10.838;2023-02-18T21:26:27;7.94;87.61
63407;SHT31;49543;45.892;10.838;2023-02-18T21:28:53;7.94;87.57
63407;SHT31;49543;45.892;10.838;2023-02-18T21:31:23;7.94;87.53
63407;SHT31;49543;45.892;10.838;2023-02-18T21:33:50;7.95;87.81
63407;SHT31;49543;45.892;10.838;2023-02-18T21:36:15;7.97;87.85
63407;SHT31;49543;45.892;10.838;2023-02-18T21:38:41;7.97;87.82
63407;SHT31;49543;45.892;10.838;2023-02-18T21:41:08;7.95;87.57
63407;SHT31;49543;45.892;10.838;2023-02-18T21:43:34;7.95;87.55
63407;SHT31;49543;45.892;10.838;2023-02-18T21:46:09;7.93;87.17
63407;SHT31;49543;45.892;10.838;2023-02-18T21:48:34;7.90;87.20
63407;SHT31;49543;45.892;10.838;2023-02-18T21:51:18;7.91;87.14
63407;SHT31;49543;45.892;10.838;2023-02-18T21:54:03;7.84;87.20
63407;SHT31;49543;45.892;10.838;2023-02-18T21:56:29;7.84;87.51
63407;SHT31;49543;45.892;10.838;2023-02-18T21:58:54;7.84;87.58
63407;SHT31;49543;45.892;10.838;2023-02-18T22:01:19;7.86;87.21
63407;SHT31;49543;45.892;10.838;2023-02-18T22:03:45;7.87;87.14
63407;SHT31;49543;45.892;10.838;2023-02-18T22:06:10;7.86;87.06
63407;SHT31;49543;45.892;10.838;2023-02-18T22:08:35;7.83;87.17
63407;SHT31;49543;45.892;10.838;2023-02-18T22:11:03;7.84;87.24
63407;SHT31;49543;45.892;10.838;2023-02-18T22:13:28;7.80;87.25
63407;SHT31;49543;45.892;10.838;2023-02-18T22:15:54;7.83;87.01
63407;SHT31;49543;45.892;10.838;2023-02-18T22:18:20;7.80;86.76
63407;SHT31;49543;45.892;10.838;2023-02-18T22:20:45;7.79;86.72
63407;SHT31;49543;45.892;10.838;2023-02-18T22:23:10;7.77;86.72
63407;SHT31;49543;45.892;10.838;2023-02-18T22:25:37;7.74;86.76
63407;SHT31;49543;45.892;10.838;2023-02-18T22:28:02;7.69;86.81
63407;SHT31;49543;45.892;10.838;2023-02-18T22:30:28;7.70;87.29
63407;SHT31;49543;45.892;10.838;2023-02-18T22:32:53;7.69;87.59
63407;SHT31;49543;45.892;10.838;2023-02-18T22:35:18;7.66;87.66
63407;SHT31;49543;45.892;10.838;2023-02-18T22:37:43;7.66;87.52
